KCHD/CHD METAR and TAF weather

Enter ICAO airport designator
Station Type Date Time Source
KCHD METAR 2019/12/12 03:47 UTC NOAA

KCHD 120347Z 18005KT 10SM CLR 12/08 A3014 RMK LAST


Station Type Date Time Source
KCHD Decoded METAR 2019/12/12 03:47 UTC NOAA

Chandler, Chandler Municipal Airport, AZ, United States (KCHD) 33-16-09N 111-48-40W
Dec 11, 2019 - 10:47 PM EST / 2019.12.12 0347 UTC
Wind: from the S (180 degrees) at 6 MPH (5 KT):0
Visibility: 10 mile(s):0
Sky conditions: clear
Temperature: 53 F (12 C)
Dew Point: 46 F (8 C)
Relative Humidity: 76%
Pressure (altimeter): 30.14 in. Hg (1020 hPa)
ob: KCHD 120347Z 18005KT 10SM CLR 12/08 A3014 RMK LAST
cycle: 4

Station Type Date Time Source
KCHD TAF UTC NOAA

Error!

Example: see airport list